Bookmark and Share
Track history (hours):
 

Judi M.

More information available from US FCC via Universal Licensing System and Coast Guard Vessel Documentation Center.

Last reported at 2014-Apr-20 02:33 UTC. Time now 2014-Apr-20 03:10 UTC.
Position N 47°55' W 122°31'.

Length 29 m; draft 4 m.

Type: Tow > 200 m length. MMSI: 366740920.

NotesDate/timePositionNaut miles runAvg speedWind from/ knotsBaromVisibWave heightAir tempDewpointWater temp
2014-Apr-20 02:33N 47°55' W 122°31'1 9.3
2014-Apr-20 02:29N 47°56' W 122°31'9 9.1
2014-Apr-20 01:33N 48°03' W 122°39'5 0.4
2014-Apr-19 11:13N 48°06' W 122°44'5 5.9
2014-Apr-19 10:18N 48°03' W 122°38'6 8.8
2014-Apr-19 09:36N 47°58' W 122°34'0 9.7
2014-Apr-19 09:33N 47°57' W 122°33'1 9.0
2014-Apr-19 09:26N 47°57' W 122°32'8 8.9
2014-Apr-19 08:33N 47°50' W 122°27'0 8.7
2014-Apr-19 08:31N 47°49' W 122°27'9 9.4
2014-Apr-19 07:33N 47°40' W 122°27'0 9.1
2014-Apr-19 07:31N 47°40' W 122°27'7 6.9
2014-Apr-19 06:33N 47°34' W 122°22'0 0.6
2014-Apr-19 06:31N 47°34' W 122°22'  
2014-Apr-17 01:58N 47°34' W 122°22'0 0.5
2014-Apr-17 01:33N 47°35' W 122°22'0 5.1
2014-Apr-17 01:28N 47°35' W 122°22'3 3.7
2014-Apr-17 00:34N 47°37' W 122°25'0 9.3
2014-Apr-17 00:33N 47°37' W 122°26'6 6.2
2014-Apr-16 23:34N 47°43' W 122°28'0 6.6
2014-Apr-16 23:33N 47°43' W 122°28'7 6.8
2014-Apr-16 22:33N 47°50' W 122°28'1 7.3
2014-Apr-16 22:29N 47°50' W 122°28'7 7.3
2014-Apr-16 21:33N 47°56' W 122°33'8 7.2
2014-Apr-16 20:30N 48°03' W 122°39'7 7.0
2014-Apr-16 19:33N 48°09' W 122°44'5 4.3
2014-Apr-16 18:29N 48°12' W 122°49'5 4.9
2014-Apr-16 17:32N 48°17' W 122°48'6 6.5
2014-Apr-16 16:33N 48°23' W 122°46'8 8.3
2014-Apr-16 15:33N 48°31' W 122°45'9 8.9
2014-Apr-16 14:33N 48°40' W 122°44'7 6.7
2014-Apr-16 13:33N 48°46' W 122°49'7 6.8
2014-Apr-16 12:33N 48°49' W 122°58'7 6.9
2014-Apr-16 11:33N 48°53' W 123°07'6 6.2
2014-Apr-16 10:33N 48°57' W 123°14'7 6.6
2014-Apr-16 09:33N 49°01' W 123°22'7 6.9
2014-Apr-16 08:33N 49°08' W 123°26'8 7.5
2014-Apr-16 07:33N 49°15' W 123°27'8 7.6
2014-Apr-16 06:33N 49°23' W 123°26'7 6.5
2014-Apr-16 05:33N 49°29' W 123°28'2 2.2
2014-Apr-16 04:33N 49°31' W 123°29'0 0.0
2014-Apr-16 03:33N 49°31' W 123°29'0 0.0
2014-Apr-16 02:33N 49°31' W 123°29'0 0.0
2014-Apr-16 01:33N 49°31' W 123°29'0 0.0
2014-Apr-16 00:33N 49°31' W 123°29'0 0.0
2014-Apr-15 23:33N 49°31' W 123°29'0 0.0
2014-Apr-15 22:33N 49°31' W 123°29'0 0.0
2014-Apr-15 21:33N 49°31' W 123°29'0 0.0
2014-Apr-15 20:33N 49°31' W 123°29'0 0.0
2014-Apr-15 19:33N 49°31' W 123°29'0 0.0
2014-Apr-15 18:33N 49°31' W 123°29'0 0.0
2014-Apr-15 17:33N 49°31' W 123°29'0 0.0
2014-Apr-15 16:33N 49°31' W 123°29'0 0.0
2014-Apr-15 15:33N 49°31' W 123°29'3 3.1
2014-Apr-15 14:34N 49°28' W 123°28'7 3.5
2014-Apr-15 12:34N 49°21' W 123°27'7 7.1
2014-Apr-15 11:34N 49°14' W 123°27'8 8.2
2014-Apr-15 10:34N 49°06' W 123°23'8 8.2
2014-Apr-15 09:34N 49°00' W 123°15'9 8.7
2014-Apr-15 08:34N 48°55' W 123°05'9 8.6
2014-Apr-15 07:34N 48°49' W 122°55'8 8.0
2014-Apr-15 06:34N 48°44' W 122°45'7 7.3
2014-Apr-15 05:34N 48°37' W 122°44'14 6.8
2014-Apr-15 03:34N 48°23' W 122°45'7 7.1
2014-Apr-15 02:34N 48°17' W 122°47'5 5.3
2014-Apr-15 01:33N 48°11' W 122°46'6 6.0
2014-Apr-15 00:33N 48°07' W 122°39'1034.7
2014-Apr-15 00:16N 47°58' W 122°34'2 2.8
2014-Apr-14 23:33N 47°60' W 122°35'8212.6
2014-Apr-14 23:31N 47°54' W 122°28'0 0.3
2014-Apr-14 22:34N 47°54' W 122°28'8176.7
2014-Apr-14 22:31N 47°46' W 122°25'0 0.3
2014-Apr-14 21:34N 47°46' W 122°25'8177.2
2014-Apr-14 21:31N 47°39' W 122°26'0 0.3
2014-Apr-14 20:34N 47°39' W 122°27'6119.4
2014-Apr-14 20:31N 47°34' W 122°22'0 0.0
2014-Apr-14 19:34N 47°34' W 122°22'0 0.1
2014-Apr-14 19:30N 47°34' W 122°22'0 0.0
2014-Apr-14 18:33N 47°34' W 122°22'0 0.0
2014-Apr-14 18:31N 47°34' W 122°22'0 0.0
2014-Apr-14 17:33N 47°34' W 122°22'0 0.0
2014-Apr-14 17:31N 47°34' W 122°22'0 0.0
2014-Apr-14 16:34N 47°34' W 122°22'0 0.0
2014-Apr-14 15:34N 47°34' W 122°22'0 0.0
2014-Apr-14 14:33N 47°34' W 122°22'0 0.0
2014-Apr-14 14:16N 47°34' W 122°22'0 0.0
2014-Apr-14 13:33N 47°34' W 122°22'0 0.0
2014-Apr-14 13:30N 47°34' W 122°22'0 0.0
2014-Apr-14 12:30N 47°34' W 122°22'0 0.0
2014-Apr-14 11:34N 47°34' W 122°22'0 0.0
2014-Apr-14 11:30N 47°34' W 122°22'0 0.0
2014-Apr-14 10:33N 47°34' W 122°22'0 0.0
2014-Apr-14 10:31N 47°34' W 122°22'0 0.0
2014-Apr-14 09:34N 47°34' W 122°22'0 0.0
2014-Apr-14 09:31N 47°34' W 122°22'0 0.0
2014-Apr-14 08:34N 47°34' W 122°22'0 0.0
2014-Apr-14 08:30N 47°34' W 122°22'0 0.0
2014-Apr-14 07:34N 47°34' W 122°22'0 0.0
2014-Apr-14 07:30N 47°34' W 122°22'0 0.0
2014-Apr-14 06:33N 47°34' W 122°22'229.6
2014-Apr-14 06:30N 47°36' W 122°23'4 5.9
2014-Apr-14 05:50N 47°38' W 122°27'414.5
2014-Apr-14 05:33N 47°36' W 122°22'1211.4
2014-Apr-14 04:29N 47°47' W 122°28'7 6.6
2014-Apr-14 03:30N 47°54' W 122°30'12 5.4
2014-Apr-14 01:14N 48°04' W 122°39'5 0.4
2014-Apr-13 12:16N 48°05' W 122°47'5 6.6
2014-Apr-13 11:31N 48°06' W 122°40'8 7.8
2014-Apr-13 10:32N 47°59' W 122°35'7 7.5
2014-Apr-13 09:32N 47°54' W 122°28'8 7.9
2014-Apr-13 08:33N 47°46' W 122°26'7 7.2
2014-Apr-13 07:33N 47°39' W 122°27'6 5.7
2014-Apr-13 06:33N 47°34' W 122°22'0 0.0
2014-Apr-13 05:33N 47°34' W 122°22'0 0.0
2014-Apr-13 04:33N 47°34' W 122°22'0 0.0
2014-Apr-13 03:33N 47°34' W 122°22'0 0.0
2014-Apr-13 02:33N 47°34' W 122°22'0 0.0
2014-Apr-13 01:33N 47°34' W 122°22'0 0.0
2014-Apr-13 00:33N 47°34' W 122°22'0 0.0
2014-Apr-12 23:33N 47°34' W 122°22'0 0.0
2014-Apr-12 22:33N 47°34' W 122°22'0 0.0
2014-Apr-12 21:33N 47°34' W 122°22'0 0.0
2014-Apr-12 20:53N 47°34' W 122°22'0 0.0
2014-Apr-12 20:33N 47°34' W 122°22'0 0.0
2014-Apr-12 20:32N 47°34' W 122°22'0 0.0
2014-Apr-12 19:33N 47°34' W 122°22'0 0.0
2014-Apr-12 19:32N 47°34' W 122°22'0 0.0
2014-Apr-12 18:33N 47°34' W 122°22'0 0.0
2014-Apr-12 18:32N 47°34' W 122°22'0 0.0
2014-Apr-12 17:33N 47°34' W 122°22'0 0.0
2014-Apr-12 17:32N 47°34' W 122°22'0 0.0
2014-Apr-12 16:33N 47°34' W 122°22'0 0.0
2014-Apr-12 16:31N 47°34' W 122°22'0 0.0
2014-Apr-12 15:33N 47°34' W 122°22'0 0.0
2014-Apr-12 15:31N 47°34' W 122°22'0 0.0
2014-Apr-12 14:33N 47°34' W 122°22'0 0.0
2014-Apr-12 14:31N 47°34' W 122°22'0 0.0
2014-Apr-12 13:33N 47°34' W 122°22'0 0.0
2014-Apr-12 13:31N 47°34' W 122°22'0 0.0
2014-Apr-12 12:33N 47°34' W 122°22'0 0.0
2014-Apr-12 12:14N 47°34' W 122°22'0 0.0
2014-Apr-12 11:33N 47°34' W 122°22'0 0.0
2014-Apr-12 10:33N 47°34' W 122°22'0 0.0
2014-Apr-12 09:33N 47°34' W 122°22'0 0.0
2014-Apr-12 08:49N 47°34' W 122°22'0 0.0
2014-Apr-12 08:33N 47°34' W 122°22'0 0.0
2014-Apr-12 08:29N 47°34' W 122°22'0 0.0
2014-Apr-12 07:32N 47°34' W 122°22'0 0.0
2014-Apr-12 07:29N 47°34' W 122°22'0 0.0
2014-Apr-12 06:34N 47°34' W 122°22'0 0.0
2014-Apr-12 06:33N 47°34' W 122°22'0 0.0
2014-Apr-12 05:49N 47°34' W 122°22'0 0.0
2014-Apr-12 05:33N 47°34' W 122°22'0 0.0
2014-Apr-12 04:33N 47°34' W 122°22'0 0.0
2014-Apr-12 04:29N 47°34' W 122°22'0 0.0
2014-Apr-12 03:33N 47°34' W 122°22'0 0.0
2014-Apr-12 03:29N 47°34' W 122°22'0 0.0
2014-Apr-12 02:33N 47°34' W 122°22'0 0.0
2014-Apr-12 02:29N 47°34' W 122°22'0 0.0
2014-Apr-12 01:33N 47°34' W 122°22'0 0.0
2014-Apr-12 01:24N 47°34' W 122°22'0 0.0
2014-Apr-12 00:33N 47°34' W 122°22'0 0.0
2014-Apr-12 00:29N 47°34' W 122°22'0 0.0
2014-Apr-11 23:34N 47°34' W 122°22'0 0.0
2014-Apr-11 23:33N 47°34' W 122°22'0 0.0
2014-Apr-11 22:19N 47°34' W 122°22'0 0.0
2014-Apr-11 22:18N 47°34' W 122°22'0 0.0
2014-Apr-11 21:34N 47°34' W 122°22'0 0.0
2014-Apr-11 21:33N 47°34' W 122°22'0 0.0
2014-Apr-11 20:33N 47°34' W 122°22'0 0.0
2014-Apr-11 20:33N 47°34' W 122°22'0 0.0
2014-Apr-11 19:33N 47°34' W 122°22'0 0.0
2014-Apr-11 19:33N 47°34' W 122°22'0 0.0
2014-Apr-11 18:33N 47°34' W 122°22'0 0.0
2014-Apr-11 18:33N 47°34' W 122°22'0 0.0
2014-Apr-11 17:33N 47°34' W 122°22'0 0.0
2014-Apr-11 17:33N 47°34' W 122°22'0 0.0
2014-Apr-11 16:33N 47°34' W 122°22'0 0.0
2014-Apr-11 16:33N 47°34' W 122°22'0 0.0
2014-Apr-11 15:33N 47°34' W 122°22'0 0.0
2014-Apr-11 15:33N 47°34' W 122°22'0 0.0
2014-Apr-11 14:33N 47°34' W 122°22'0 0.0
2014-Apr-11 14:33N 47°34' W 122°22'0 0.0
2014-Apr-11 13:33N 47°34' W 122°22'0 0.0
2014-Apr-11 13:33N 47°34' W 122°22'0 0.0
2014-Apr-11 12:33N 47°34' W 122°22'0 0.0
2014-Apr-11 12:33N 47°34' W 122°22'0 0.0
2014-Apr-11 11:33N 47°34' W 122°22'0 0.0
2014-Apr-11 11:33N 47°34' W 122°22'0 0.0
2014-Apr-11 10:33N 47°34' W 122°22'0 0.0
2014-Apr-11 10:33N 47°34' W 122°22'0 0.0
2014-Apr-11 09:33N 47°34' W 122°22'0 0.0
2014-Apr-11 09:33N 47°34' W 122°22'0 0.0
2014-Apr-11 08:34N 47°34' W 122°22'0 0.0
2014-Apr-11 08:33N 47°34' W 122°22'0 0.0
2014-Apr-11 07:33N 47°34' W 122°22'0 0.0
2014-Apr-11 07:33N 47°34' W 122°22'0 0.0
2014-Apr-11 06:33N 47°34' W 122°22'0 0.0
2014-Apr-11 06:33N 47°34' W 122°22'0 0.0
2014-Apr-11 05:38N 47°34' W 122°22'0 0.0
2014-Apr-11 05:33N 47°34' W 122°22'0 0.0
2014-Apr-11 04:33N 47°34' W 122°22'0 0.0
2014-Apr-11 04:33N 47°34' W 122°22'0 0.0
2014-Apr-11 03:33N 47°34' W 122°22'0 0.0
2014-Apr-11 03:33N 47°34' W 122°22'0 0.0
2014-Apr-11 02:33N 47°34' W 122°22'0 0.0
2014-Apr-11 02:33N 47°34' W 122°22'0 0.0
2014-Apr-11 01:33N 47°34' W 122°22'0 1.0
2014-Apr-11 01:33N 47°34' W 122°22'3 2.7
2014-Apr-11 00:33N 47°36' W 122°24'0 6.7
2014-Apr-11 00:32N 47°37' W 122°24'7 6.9
2014-Apr-10 23:33N 47°43' W 122°28'7 7.4
2014-Apr-10 22:33N 47°50' W 122°29'1 6.9
2014-Apr-10 22:25N 47°51' W 122°29'6 7.0
2014-Apr-10 21:33N 47°56' W 122°33'1 7.4
2014-Apr-10 21:29N 47°57' W 122°34'8 7.5
2014-Apr-10 20:29N 48°03' W 122°40'8 8.3
2014-Apr-10 19:28N 48°10' W 122°47'7 7.1
2014-Apr-10 18:29N 48°17' W 122°48'7 7.1
2014-Apr-10 17:33N 48°24' W 122°45'8 7.7
2014-Apr-10 16:33N 48°31' W 122°45'8 8.4
2014-Apr-10 15:33N 48°40' W 122°44'8 7.6
2014-Apr-10 14:33N 48°46' W 122°50'8 7.8
2014-Apr-10 13:33N 48°50' W 123°00'8 8.3
2014-Apr-10 12:33N 48°55' W 123°10'8 8.4
2014-Apr-10 11:33N 49°00' W 123°20'8 7.7
2014-Apr-10 10:33N 49°07' W 123°27'7 7.2
2014-Apr-10 09:34N 49°14' W 123°27'7 7.2
2014-Apr-10 08:33N 49°21' W 123°27'7 6.7
2014-Apr-10 07:33N 49°28' W 123°28'3 3.4
2014-Apr-10 06:33N 49°31' W 123°29'0 0.0
2014-Apr-10 05:33N 49°31' W 123°29'0 0.0
2014-Apr-10 04:33N 49°31' W 123°29'0 0.0
2014-Apr-10 03:33N 49°31' W 123°29'0 0.0
2014-Apr-10 02:33N 49°31' W 123°29'  

Dump ship's entire track history

sailing weather and tide predictions

Judi M. — WCX8376 — position and weather